Little Walnut Village, New Mexico
Current Conditions -  °F | °C
As of 5:15 AM on Friday 28 Nov 2014 (Local Time) from KSVC Reporting Station
Clear Clear  
Wind Chill: 26°   Ceiling: Unl
Heat Index: 34°   Visibility: 10mi
Dew Point: 18°   Wind: 10mph
Humidity: 52%   Direction: 360°N
Pressure: 30.28"   Gusts: NA
Location:  33.0124°N, 108.286°W
Report Text: KSVC 281215Z AUTO 36009KT 10SM CLR 01/M08 A3028 RMK AO2
Loading
Personal Weather Stations






























Interactive Weather Map New forecast layout! Learn more

10-Day Weather Forecast

Advertisements
Track Severe Weather on mobile